createdAt,value
2018-09-28T00:00:58.972Z,6.09
2018-09-28T00:01:58.966Z,7.69
2018-09-28T00:02:58.952Z,6.69
2018-09-28T00:03:58.940Z,7.40
2018-09-28T00:04:58.931Z,7.19
2018-09-28T00:05:58.919Z,6.69
2018-09-28T00:06:58.909Z,7.69
2018-09-28T00:07:58.898Z,7.69
2018-09-28T00:08:58.887Z,7.30
2018-09-28T00:09:58.875Z,7.50
2018-09-28T00:10:58.868Z,8.89
2018-09-28T00:11:58.856Z,6.19
2018-09-28T00:12:58.848Z,7.69
2018-09-28T00:13:58.834Z,8.69
2018-09-28T00:14:58.827Z,7.40
2018-09-28T00:15:58.813Z,7.40
2018-09-28T00:16:58.802Z,8.39
2018-09-28T00:17:58.790Z,7.30
2018-09-28T00:18:58.780Z,7.69
2018-09-28T00:19:58.768Z,7.59
2018-09-28T00:20:58.760Z,8.00
2018-09-28T00:21:58.748Z,7.59
2018-09-28T00:22:58.740Z,8.19
2018-09-28T00:23:58.724Z,6.80
2018-09-28T00:24:58.715Z,7.69
2018-09-28T00:25:58.723Z,7.50
2018-09-28T00:26:58.694Z,7.50
2018-09-28T00:27:58.682Z,8.10
2018-09-28T00:28:58.673Z,6.59
2018-09-28T00:29:58.666Z,7.00
2018-09-28T00:30:58.652Z,9.00
2018-09-28T00:31:58.640Z,6.90
2018-09-28T00:32:58.630Z,6.30
2018-09-28T00:33:58.618Z,7.40
2018-09-28T00:34:58.608Z,7.30
2018-09-28T00:35:58.684Z,7.09
2018-09-28T00:36:58.586Z,6.69
2018-09-28T00:37:58.574Z,7.50
2018-09-28T00:38:58.566Z,7.19
2018-09-28T00:39:58.553Z,7.09
2018-09-28T00:40:58.542Z,6.90
2018-09-28T00:41:58.536Z,7.00
2018-09-28T00:42:58.523Z,7.19
2018-09-28T00:43:58.515Z,8.10
2018-09-28T00:44:58.499Z,7.40
2018-09-28T00:45:58.491Z,6.90
2018-09-28T00:46:58.482Z,7.69
2018-09-28T00:47:58.469Z,8.50
2018-09-28T00:48:58.455Z,8.19
2018-09-28T00:49:58.445Z,9.50
2018-09-28T00:50:58.433Z,7.50
2018-09-28T00:51:58.423Z,8.10
2018-09-28T00:52:58.413Z,8.30
2018-09-28T00:53:58.408Z,7.69
2018-09-28T00:54:58.391Z,7.30
2018-09-28T00:55:58.382Z,7.00
2018-09-28T00:56:58.370Z,7.50
2018-09-28T00:57:58.363Z,7.69
2018-09-28T00:58:58.349Z,7.90
2018-09-28T00:59:58.339Z,7.59
2018-09-28T01:00:58.329Z,7.80
2018-09-28T01:01:58.320Z,6.69
2018-09-28T01:02:58.314Z,8.19
2018-09-28T01:03:58.297Z,7.59
2018-09-28T01:04:58.283Z,7.50
2018-09-28T01:05:58.271Z,7.30
2018-09-28T01:06:58.265Z,6.40
2018-09-28T01:07:58.253Z,8.10
2018-09-28T01:08:58.246Z,8.00
2018-09-28T01:09:58.229Z,7.69
2018-09-28T01:10:58.222Z,7.09
2018-09-28T01:11:58.209Z,7.00
2018-09-28T01:12:58.198Z,6.69
2018-09-28T01:13:58.185Z,6.00
2018-09-28T01:14:58.174Z,7.19
2018-09-28T01:15:58.164Z,5.80
2018-09-28T01:16:58.152Z,7.09
2018-09-28T01:17:58.145Z,8.00
2018-09-28T01:18:58.132Z,8.10
2018-09-28T01:19:58.121Z,7.30
2018-09-28T01:20:58.111Z,6.30
2018-09-28T01:21:58.101Z,7.40
2018-09-28T01:22:58.107Z,7.59
2018-09-28T01:23:58.078Z,8.60
2018-09-28T01:24:58.069Z,7.00
2018-09-28T01:25:58.056Z,7.30
2018-09-28T01:26:58.050Z,9.50
2018-09-28T01:27:58.037Z,9.80
2018-09-28T01:28:58.024Z,8.10
2018-09-28T01:29:58.034Z,8.10
2018-09-28T01:30:58.004Z,9.10
2018-09-28T01:31:57.994Z,9.19
2018-09-28T01:32:57.983Z,9.39
2018-09-28T01:33:57.971Z,7.40
2018-09-28T01:34:57.960Z,8.00
2018-09-28T01:35:57.952Z,8.60
2018-09-28T01:36:57.940Z,8.89
2018-09-28T01:37:57.928Z,7.80
2018-09-28T01:38:57.919Z,7.69
2018-09-28T01:39:57.906Z,9.19
2018-09-28T01:40:57.896Z,8.10
2018-09-28T01:41:57.887Z,7.40
2018-09-28T01:42:57.876Z,6.80
2018-09-28T01:43:57.864Z,10.89
2018-09-28T01:44:57.853Z,7.90
2018-09-28T01:45:57.843Z,9.60
2018-09-28T01:46:57.832Z,9.30
2018-09-28T01:47:57.820Z,8.39
2018-09-28T01:48:57.811Z,7.69
2018-09-28T01:49:57.801Z,7.00
2018-09-28T01:50:57.788Z,7.59
2018-09-28T01:51:57.777Z,6.90
2018-09-28T01:52:57.767Z,8.19
2018-09-28T01:53:57.755Z,7.19
2018-09-28T01:54:57.746Z,7.69
2018-09-28T01:55:57.734Z,6.69
2018-09-28T01:56:57.724Z,8.00
2018-09-28T01:57:57.712Z,6.50
2018-09-28T01:58:57.702Z,8.00
2018-09-28T01:59:57.692Z,7.69
2018-09-28T02:00:57.685Z,8.10
2018-09-28T02:01:57.670Z,7.59
2018-09-28T02:02:57.659Z,8.10
2018-09-28T02:03:57.648Z,8.10
2018-09-28T02:04:57.647Z,7.69
2018-09-28T02:05:57.628Z,8.30
2018-09-28T02:06:57.618Z,7.30
2018-09-28T02:07:57.606Z,7.59
2018-09-28T02:08:57.598Z,8.19
2018-09-28T02:09:57.584Z,7.30
2018-09-28T02:10:57.575Z,9.30
2018-09-28T02:11:57.566Z,8.50
2018-09-28T02:12:57.555Z,9.69
2018-09-28T02:13:57.540Z,8.60
2018-09-28T02:14:57.529Z,9.10
2018-09-28T02:15:57.666Z,8.00
2018-09-28T02:16:57.508Z,7.80
2018-09-28T02:17:57.500Z,9.30
2018-09-28T02:18:57.492Z,7.69
2018-09-28T02:19:57.479Z,7.69
2018-09-28T02:20:57.464Z,7.80
2018-09-28T02:21:57.455Z,8.50
2018-09-28T02:22:57.444Z,7.40
2018-09-28T02:23:57.433Z,6.50
2018-09-28T02:24:57.420Z,7.80
2018-09-28T02:25:57.412Z,9.39
2018-09-28T02:26:57.400Z,8.80
2018-09-28T02:27:57.389Z,9.00
2018-09-28T02:28:57.381Z,11.19
2018-09-28T02:29:57.369Z,9.60
2018-09-28T02:30:57.359Z,7.90
2018-09-28T02:31:57.348Z,9.30
2018-09-28T02:32:57.335Z,9.80
2018-09-28T02:33:57.327Z,8.39
2018-09-28T02:34:57.316Z,7.69
2018-09-28T02:35:57.307Z,9.39
2018-09-28T02:36:57.294Z,9.69
2018-09-28T02:37:57.281Z,10.00
2018-09-28T02:38:57.271Z,7.80
2018-09-28T02:39:57.263Z,8.10
2018-09-28T02:40:57.255Z,8.69
2018-09-28T02:41:57.241Z,10.10
2018-09-28T02:42:57.231Z,8.39
2018-09-28T02:43:57.218Z,10.30
2018-09-28T02:44:57.209Z,8.10
2018-09-28T02:45:57.196Z,8.19
2018-09-28T02:46:57.188Z,8.00
2018-09-28T02:47:57.178Z,7.50
2018-09-28T02:48:57.166Z,7.19
2018-09-28T02:49:57.153Z,7.59
2018-09-28T02:50:57.143Z,7.69
2018-09-28T02:51:57.140Z,9.60
2018-09-28T02:52:57.125Z,8.00
2018-09-28T02:53:57.111Z,8.80
2018-09-28T02:54:57.099Z,7.40
2018-09-28T02:55:57.087Z,8.69
2018-09-28T02:56:57.140Z,6.59
2018-09-28T02:57:57.074Z,8.50
2018-09-28T02:58:57.070Z,7.40
2018-09-28T02:59:57.045Z,8.60
2018-09-28T03:00:57.085Z,7.59
2018-09-28T03:01:57.026Z,8.80
2018-09-28T03:02:57.018Z,8.39
2018-09-28T03:03:57.005Z,8.60
2018-09-28T03:04:56.991Z,8.00
2018-09-28T03:05:56.982Z,8.80
2018-09-28T03:06:56.971Z,8.19
2018-09-28T03:07:56.961Z,8.19
2018-09-28T03:08:56.950Z,7.30
2018-09-28T03:09:56.939Z,7.00
2018-09-28T03:10:56.928Z,8.50
2018-09-28T03:11:56.917Z,9.10
2018-09-28T03:12:56.915Z,8.00
2018-09-28T03:13:56.898Z,8.30
2018-09-28T03:14:56.886Z,8.69
2018-09-28T03:15:56.873Z,7.69
2018-09-28T03:16:56.866Z,8.39
2018-09-28T03:17:56.853Z,7.50
2018-09-28T03:18:56.842Z,9.10
2018-09-28T03:19:56.832Z,8.60
2018-09-28T03:20:56.833Z,8.19
2018-09-28T03:21:56.810Z,10.00
2018-09-28T03:22:56.798Z,9.39
2018-09-28T03:23:56.789Z,8.39
2018-09-28T03:24:56.776Z,10.39
2018-09-28T03:25:56.840Z,8.80
2018-09-28T03:26:56.756Z,8.10
2018-09-28T03:27:56.745Z,8.80
2018-09-28T03:28:56.737Z,8.10
2018-09-28T03:29:56.725Z,9.00
2018-09-28T03:30:56.714Z,9.00
2018-09-28T03:31:56.704Z,9.10
2018-09-28T03:32:56.693Z,8.39
2018-09-28T03:33:56.685Z,8.39
2018-09-28T03:34:56.671Z,9.60
2018-09-28T03:35:56.659Z,9.30
2018-09-28T03:36:56.649Z,8.00
2018-09-28T03:37:56.688Z,7.50
2018-09-28T03:38:56.628Z,6.80
2018-09-28T03:39:56.645Z,9.39
2018-09-28T03:40:56.605Z,7.59
2018-09-28T03:41:56.595Z,8.39
2018-09-28T03:42:56.586Z,10.30
2018-09-28T03:43:56.581Z,9.69
2018-09-28T03:44:56.563Z,7.59
2018-09-28T03:45:56.553Z,8.19
2018-09-28T03:46:56.541Z,10.00
2018-09-28T03:47:56.528Z,7.40
2018-09-28T03:48:56.520Z,8.00
2018-09-28T03:49:56.508Z,7.80
2018-09-28T03:50:56.498Z,7.50
2018-09-28T03:51:56.488Z,7.30
2018-09-28T03:52:56.483Z,7.69
2018-09-28T03:53:56.469Z,8.69
2018-09-28T03:54:56.459Z,8.10
2018-09-28T03:55:56.448Z,7.00
2018-09-28T03:56:56.433Z,6.90
2018-09-28T03:57:56.420Z,8.00
2018-09-28T03:58:56.411Z,8.80
2018-09-28T03:59:56.402Z,8.19
2018-09-28T04:00:56.393Z,8.39
2018-09-28T04:01:56.378Z,7.09
2018-09-28T04:02:56.383Z,9.30
2018-09-28T04:03:56.357Z,8.60
2018-09-28T04:04:56.348Z,8.50
2018-09-28T04:05:56.337Z,7.30
2018-09-28T04:06:56.327Z,10.30
2018-09-28T04:07:56.316Z,7.19
2018-09-28T04:08:56.305Z,8.80
2018-09-28T04:09:56.294Z,8.89
2018-09-28T04:10:56.283Z,7.80
2018-09-28T04:11:56.271Z,8.50
2018-09-28T04:12:56.264Z,7.59
2018-09-28T04:13:56.252Z,7.19
2018-09-28T04:14:56.279Z,8.50
2018-09-28T04:15:56.228Z,8.00
2018-09-28T04:16:56.220Z,7.40
2018-09-28T04:17:56.208Z,7.59
2018-09-28T04:18:56.197Z,7.00
2018-09-28T04:19:56.189Z,6.80
2018-09-28T04:20:56.180Z,8.30
2018-09-28T04:21:56.226Z,8.50
2018-09-28T04:22:56.153Z,8.10
2018-09-28T04:23:56.144Z,8.50
2018-09-28T04:24:56.132Z,8.19
2018-09-28T04:25:56.124Z,8.39
2018-09-28T04:26:56.111Z,7.00
2018-09-28T04:27:56.098Z,7.80
2018-09-28T04:28:56.093Z,7.50
2018-09-28T04:29:56.078Z,9.30
2018-09-28T04:30:56.069Z,8.19
2018-09-28T04:31:56.057Z,8.60
2018-09-28T04:32:56.046Z,6.69
2018-09-28T04:33:56.040Z,8.69
2018-09-28T04:34:56.024Z,8.00
2018-09-28T04:35:56.018Z,8.00
2018-09-28T04:36:56.002Z,9.30
2018-09-28T04:37:55.992Z,8.69
2018-09-28T04:38:55.982Z,8.50
2018-09-28T04:39:55.970Z,7.59
2018-09-28T04:40:55.961Z,7.40
2018-09-28T04:41:55.947Z,7.40
2018-09-28T04:42:55.938Z,7.50
2018-09-28T04:43:55.928Z,7.80
2018-09-28T04:44:55.919Z,6.40
2018-09-28T04:45:55.906Z,9.30
2018-09-28T04:46:55.897Z,7.69
2018-09-28T04:47:55.887Z,7.40
2018-09-28T04:48:55.874Z,9.50
2018-09-28T04:49:55.865Z,6.80
2018-09-28T04:50:55.854Z,6.09
2018-09-28T04:51:55.841Z,8.00
2018-09-28T04:52:55.831Z,9.19
2018-09-28T04:53:55.821Z,6.40
2018-09-28T04:54:55.810Z,8.19
2018-09-28T04:55:55.801Z,8.30
2018-09-28T04:56:55.788Z,7.69
2018-09-28T04:57:55.778Z,9.30
2018-09-28T04:58:55.767Z,7.00
2018-09-28T04:59:55.756Z,7.50
2018-09-28T05:00:55.744Z,6.90
2018-09-28T05:01:55.735Z,7.59
2018-09-28T05:02:55.723Z,8.69
2018-09-28T05:03:55.721Z,7.90
2018-09-28T05:04:55.701Z,8.39
2018-09-28T05:05:55.692Z,7.59
2018-09-28T05:06:55.681Z,8.80
2018-09-28T05:07:55.670Z,8.80
2018-09-28T05:08:55.658Z,8.00
2018-09-28T05:09:55.647Z,7.19
2018-09-28T05:10:55.639Z,8.19
2018-09-28T05:11:55.625Z,8.60
2018-09-28T05:12:55.638Z,8.39
2018-09-28T05:13:55.605Z,7.19
2018-09-28T05:14:55.599Z,7.19
2018-09-28T05:15:55.586Z,8.19
2018-09-28T05:16:55.572Z,8.10
2018-09-28T05:17:55.564Z,6.80
2018-09-28T05:18:55.551Z,9.39
2018-09-28T05:19:55.543Z,9.19
2018-09-28T05:20:55.530Z,7.90
2018-09-28T05:21:55.519Z,9.30
2018-09-28T05:22:55.508Z,8.89
2018-09-28T05:23:55.500Z,8.60
2018-09-28T05:24:55.486Z,8.89
2018-09-28T05:25:55.479Z,9.30
2018-09-28T05:26:55.464Z,10.39
2018-09-28T05:27:55.458Z,9.00
2018-09-28T05:28:55.444Z,8.30
2018-09-28T05:29:55.434Z,8.50
2018-09-28T05:30:55.427Z,7.09
2018-09-28T05:31:55.653Z,8.69
2018-09-28T05:32:55.536Z,9.30
2018-09-28T05:33:55.391Z,8.50
2018-09-28T05:34:55.378Z,8.00
2018-09-28T05:35:55.367Z,8.69
2018-09-28T05:36:55.358Z,8.69
2018-09-28T05:37:55.347Z,9.30
2018-09-28T05:38:55.341Z,7.90
2018-09-28T05:39:55.326Z,8.50
2018-09-28T05:40:55.314Z,7.40
2018-09-28T05:41:55.307Z,8.69
2018-09-28T05:42:55.294Z,8.39
2018-09-28T05:43:55.356Z,8.89
2018-09-28T05:44:55.272Z,8.19
2018-09-28T05:45:55.264Z,8.39
2018-09-28T05:46:55.251Z,7.80
2018-09-28T05:47:55.241Z,7.80
2018-09-28T05:48:55.228Z,8.89
2018-09-28T05:49:55.219Z,10.10
2018-09-28T05:50:55.206Z,7.80
2018-09-28T05:51:55.202Z,8.00
2018-09-28T05:52:55.186Z,7.30
2018-09-28T05:53:55.197Z,9.00
2018-09-28T05:54:55.165Z,8.39
2018-09-28T05:55:55.155Z,7.69
2018-09-28T05:56:55.144Z,8.00
2018-09-28T05:57:55.195Z,7.40
2018-09-28T05:58:55.121Z,9.10
2018-09-28T05:59:55.112Z,8.00
2018-09-28T06:00:55.100Z,7.90
2018-09-28T06:01:55.090Z,7.09
2018-09-28T06:02:55.078Z,7.00
2018-09-28T06:03:55.067Z,6.90
2018-09-28T06:04:55.059Z,6.00
2018-09-28T06:05:55.050Z,7.40
2018-09-28T06:06:55.033Z,7.00
2018-09-28T06:07:55.022Z,6.69
2018-09-28T06:08:55.014Z,9.19
2018-09-28T06:09:55.002Z,7.19
2018-09-28T06:10:54.989Z,6.50
2018-09-28T06:11:54.979Z,6.59
2018-09-28T06:12:54.969Z,6.69
2018-09-28T06:13:54.957Z,6.80
2018-09-28T06:14:54.948Z,6.19
2018-09-28T06:15:54.944Z,6.19
2018-09-28T06:16:54.924Z,7.50
2018-09-28T06:17:54.973Z,7.00
2018-09-28T06:18:54.912Z,8.39
2018-09-28T06:19:54.895Z,7.40
2018-09-28T06:20:54.882Z,6.59
2018-09-28T06:21:54.872Z,7.09
2018-09-28T06:22:54.859Z,6.50
2018-09-28T06:23:54.852Z,7.90
2018-09-28T06:24:54.839Z,6.80
2018-09-28T06:25:54.877Z,6.80
2018-09-28T06:26:54.817Z,8.00
2018-09-28T06:27:54.808Z,6.90
2018-09-28T06:28:54.796Z,7.80
2018-09-28T06:29:54.810Z,5.69
2018-09-28T06:30:54.774Z,6.09
2018-09-28T06:31:54.762Z,8.00
2018-09-28T06:32:54.758Z,8.39
2018-09-28T06:33:54.743Z,7.30
2018-09-28T06:34:54.732Z,7.00
2018-09-28T06:35:54.775Z,6.69
2018-09-28T06:36:54.711Z,6.30
2018-09-28T06:37:54.697Z,9.10
2018-09-28T06:38:54.741Z,5.90
2018-09-28T06:39:54.677Z,7.59
2018-09-28T06:40:54.664Z,6.40
2018-09-28T06:41:54.660Z,6.80
2018-09-28T06:42:54.646Z,7.50
2018-09-28T06:43:54.634Z,8.10
2018-09-28T06:44:54.625Z,6.69
2018-09-28T06:45:54.611Z,6.00
2018-09-28T06:46:54.600Z,6.59
2018-09-28T06:47:54.721Z,7.59
2018-09-28T06:48:54.584Z,7.50
2018-09-28T06:49:54.569Z,6.09
2018-09-28T06:50:54.558Z,5.80
2018-09-28T06:51:54.548Z,5.69
2018-09-28T06:52:54.537Z,7.00
2018-09-28T06:53:54.612Z,6.50
2018-09-28T06:54:54.516Z,7.69
2018-09-28T06:55:54.507Z,6.40
2018-09-28T06:56:54.494Z,8.19
2018-09-28T06:57:54.483Z,7.19
2018-09-28T06:58:54.474Z,6.59
2018-09-28T06:59:54.546Z,7.90
2018-09-28T07:00:54.449Z,6.80
2018-09-28T07:01:54.440Z,6.59
2018-09-28T07:02:54.429Z,7.30
2018-09-28T07:03:54.439Z,7.19
2018-09-28T07:04:54.406Z,7.90
2018-09-28T07:05:54.406Z,6.69
2018-09-28T07:06:54.391Z,6.90
2018-09-28T07:07:54.374Z,6.19
2018-09-28T07:08:54.363Z,5.19
2018-09-28T07:09:54.354Z,6.09
2018-09-28T07:10:54.343Z,6.80
2018-09-28T07:11:54.367Z,6.30
2018-09-28T07:12:54.332Z,6.90
2018-09-28T07:13:54.310Z,6.19
2018-09-28T07:14:54.297Z,7.09
2018-09-28T07:15:54.287Z,6.19
2018-09-28T07:16:54.361Z,6.09
2018-09-28T07:17:54.324Z,6.30
2018-09-28T07:18:54.257Z,6.30
2018-09-28T07:19:54.246Z,6.80
2018-09-28T07:20:54.233Z,6.00
2018-09-28T07:21:54.221Z,7.80
2018-09-28T07:22:54.212Z,6.19
2018-09-28T07:23:54.278Z,7.00
2018-09-28T07:24:54.211Z,6.19
2018-09-28T07:25:54.178Z,6.80
2018-09-28T07:26:54.170Z,5.40
2018-09-28T07:27:54.158Z,6.50
2018-09-28T07:28:54.145Z,6.69
2018-09-28T07:29:54.171Z,6.40
2018-09-28T07:30:54.124Z,7.69
2018-09-28T07:31:54.115Z,6.40
2018-09-28T07:32:54.104Z,5.69
2018-09-28T07:33:54.090Z,6.80
2018-09-28T07:34:54.082Z,6.59
2018-09-28T07:35:54.146Z,6.69
2018-09-28T07:36:54.076Z,7.19
2018-09-28T07:37:54.047Z,7.80
2018-09-28T07:38:54.038Z,6.50
2018-09-28T07:39:54.028Z,7.19
2018-09-28T07:40:54.017Z,6.30
2018-09-28T07:41:54.044Z,7.09
2018-09-28T07:42:53.995Z,6.90
2018-09-28T07:43:53.984Z,7.80
2018-09-28T07:44:53.970Z,7.09
2018-09-28T07:45:53.962Z,8.50
2018-09-28T07:46:53.952Z,6.09
2018-09-28T07:47:53.987Z,7.69
2018-09-28T07:48:53.929Z,6.90
2018-09-28T07:49:53.922Z,6.09
2018-09-28T07:50:53.908Z,6.30
2018-09-28T07:51:53.894Z,6.50
2018-09-28T07:52:53.890Z,6.40
2018-09-28T07:53:53.874Z,6.30
2018-09-28T07:54:53.863Z,7.40
2018-09-28T07:55:53.970Z,6.19
2018-09-28T07:56:53.841Z,8.10
2018-09-28T07:57:53.830Z,7.40
2018-09-28T07:58:53.821Z,7.50
2018-09-28T07:59:53.811Z,6.40
2018-09-28T08:00:53.798Z,7.19
2018-09-28T08:01:53.788Z,5.69
2018-09-28T08:02:53.776Z,6.30
2018-09-28T08:03:53.817Z,8.30
2018-09-28T08:04:53.755Z,7.50
2018-09-28T08:05:53.746Z,6.40
2018-09-28T08:06:53.736Z,6.90
2018-09-28T08:07:53.723Z,6.59
2018-09-28T08:08:53.714Z,6.40
2018-09-28T08:09:53.700Z,6.80
2018-09-28T08:10:53.691Z,6.50
2018-09-28T08:11:53.679Z,8.69
2018-09-28T08:12:53.669Z,7.09
2018-09-28T08:13:53.656Z,7.90
2018-09-28T08:14:53.645Z,6.90
2018-09-28T08:15:53.636Z,7.50
2018-09-28T08:16:53.623Z,7.50
2018-09-28T08:17:53.625Z,7.09
2018-09-28T08:18:53.606Z,7.80
2018-09-28T08:19:53.592Z,8.30
2018-09-28T08:20:53.580Z,6.30
2018-09-28T08:21:53.573Z,6.80
2018-09-28T08:22:53.558Z,6.90
2018-09-28T08:23:53.548Z,8.89
2018-09-28T08:24:53.538Z,10.69
2018-09-28T08:25:53.529Z,10.10
2018-09-28T08:26:53.517Z,8.50
2018-09-28T08:27:53.506Z,9.80
2018-09-28T08:28:53.495Z,9.30
2018-09-28T08:29:53.506Z,6.19
2018-09-28T08:30:53.473Z,7.59
2018-09-28T08:31:53.461Z,7.19
2018-09-28T08:32:53.451Z,7.19
2018-09-28T08:33:53.438Z,8.39
2018-09-28T08:34:53.427Z,7.19
2018-09-28T08:35:53.436Z,7.50
2018-09-28T08:36:53.459Z,8.50
2018-09-28T08:37:53.408Z,7.90
2018-09-28T08:38:53.402Z,8.39
2018-09-28T08:39:53.375Z,7.30
2018-09-28T08:40:53.364Z,9.30
2018-09-28T08:41:53.398Z,7.50
2018-09-28T08:42:53.341Z,8.89
2018-09-28T08:43:53.329Z,7.80
2018-09-28T08:44:53.319Z,7.19
2018-09-28T08:45:53.333Z,7.50
2018-09-28T08:46:53.299Z,7.00
2018-09-28T08:47:53.288Z,7.19
2018-09-28T08:48:53.278Z,8.10
2018-09-28T08:49:53.265Z,7.00
2018-09-28T08:50:53.255Z,7.69
2018-09-28T08:51:53.245Z,9.19
2018-09-28T08:52:53.234Z,7.30
2018-09-28T08:53:53.222Z,9.00
2018-09-28T08:54:53.211Z,8.19
2018-09-28T08:55:53.199Z,7.00
2018-09-28T08:56:53.190Z,8.80
2018-09-28T08:57:53.181Z,7.30
2018-09-28T08:58:53.168Z,7.80
2018-09-28T08:59:53.157Z,8.30
2018-09-28T09:00:53.146Z,8.69
2018-09-28T09:01:53.135Z,8.19
2018-09-28T09:02:53.138Z,8.00
2018-09-28T09:03:53.115Z,8.00
2018-09-28T09:04:53.101Z,7.40
2018-09-28T09:05:53.092Z,7.19
2018-09-28T09:06:53.085Z,9.50
2018-09-28T09:07:53.070Z,8.60
2018-09-28T09:08:53.059Z,8.50
2018-09-28T09:09:53.047Z,8.00
2018-09-28T09:10:53.038Z,8.10
2018-09-28T09:11:53.024Z,8.39
2018-09-28T09:12:53.062Z,7.69
2018-09-28T09:13:53.007Z,8.39
2018-09-28T09:14:52.993Z,7.59
2018-09-28T09:15:52.982Z,6.90
2018-09-28T09:16:52.970Z,7.80
2018-09-28T09:17:53.015Z,8.19
2018-09-28T09:18:52.951Z,8.50
2018-09-28T09:19:52.938Z,7.19
2018-09-28T09:20:52.929Z,8.00
2018-09-28T09:21:52.916Z,9.30
2018-09-28T09:22:52.908Z,8.10
2018-09-28T09:23:52.921Z,9.10
2018-09-28T09:24:52.884Z,12.39
2018-09-28T09:25:52.878Z,8.00
2018-09-28T09:26:52.864Z,8.89
2018-09-28T09:27:52.852Z,11.80
2018-09-28T09:28:52.846Z,9.60
2018-09-28T09:29:52.829Z,8.39
2018-09-28T09:30:52.819Z,9.10
2018-09-28T09:31:52.807Z,9.80
2018-09-28T09:32:52.797Z,9.19
2018-09-28T09:33:52.785Z,9.89
2018-09-28T09:34:52.773Z,9.30
2018-09-28T09:35:52.767Z,8.89
2018-09-28T09:36:52.759Z,9.00
2018-09-28T09:37:52.746Z,10.00
2018-09-28T09:38:52.733Z,7.40
2018-09-28T09:39:52.720Z,9.19
2018-09-28T09:40:52.714Z,8.30
2018-09-28T09:41:52.699Z,9.69
2018-09-28T09:42:52.690Z,8.80
2018-09-28T09:43:52.681Z,10.69
2018-09-28T09:44:52.667Z,9.89
2018-09-28T09:45:52.656Z,10.50
2018-09-28T09:46:52.644Z,10.30
2018-09-28T09:47:52.635Z,10.89
2018-09-28T09:48:52.624Z,10.69
2018-09-28T09:49:52.610Z,10.80
2018-09-28T09:50:52.607Z,9.00
2018-09-28T09:51:52.592Z,9.19
2018-09-28T09:52:52.580Z,10.10
2018-09-28T09:53:52.568Z,8.39
2018-09-28T09:54:52.558Z,9.80
2018-09-28T09:55:52.545Z,9.00
2018-09-28T09:56:52.535Z,10.19
2018-09-28T09:57:52.714Z,9.60
2018-09-28T09:58:52.517Z,10.50
2018-09-28T09:59:52.504Z,12.19
2018-09-28T10:00:52.494Z,11.89
2018-09-28T10:01:52.481Z,11.50
2018-09-28T10:02:52.473Z,12.19
2018-09-28T10:03:52.461Z,11.00
2018-09-28T10:04:52.449Z,13.69
2018-09-28T10:05:52.439Z,12.60
2018-09-28T10:06:52.426Z,14.39
2018-09-28T10:07:52.417Z,13.39
2018-09-28T10:08:52.418Z,14.19
2018-09-28T10:09:52.395Z,13.19
2018-09-28T10:10:52.383Z,14.39
2018-09-28T10:11:52.370Z,14.69
2018-09-28T10:12:52.439Z,14.89
2018-09-28T10:13:52.350Z,14.30
2018-09-28T10:14:52.343Z,15.89
2018-09-28T10:15:52.329Z,12.69
2018-09-28T10:16:52.316Z,13.39
2018-09-28T10:17:52.308Z,14.00
2018-09-28T10:18:52.297Z,11.69
2018-09-28T10:19:52.287Z,11.19
2018-09-28T10:20:52.274Z,12.80
2018-09-28T10:21:52.269Z,13.39
2018-09-28T10:22:52.256Z,13.80
2018-09-28T10:23:52.242Z,12.89
2018-09-28T10:24:52.233Z,13.39
2018-09-28T10:25:52.223Z,14.50
2018-09-28T10:26:52.210Z,17.10
2018-09-28T10:27:52.258Z,15.39
2018-09-28T10:28:52.188Z,17.10
2018-09-28T10:29:52.176Z,17.29
2018-09-28T10:30:52.168Z,15.80
2018-09-28T10:31:52.154Z,15.80
2018-09-28T10:32:52.143Z,17.70
2018-09-28T10:33:52.135Z,15.10
2018-09-28T10:34:52.168Z,14.19
2018-09-28T10:35:52.111Z,13.89
2018-09-28T10:36:52.106Z,14.30
2018-09-28T10:37:52.091Z,21.29
2018-09-28T10:38:52.079Z,27.50
2018-09-28T10:39:52.137Z,27.29
2018-09-28T10:40:52.185Z,23.00
2018-09-28T10:41:52.046Z,20.70
2018-09-28T10:42:52.038Z,20.39
2018-09-28T10:43:52.025Z,17.00
2018-09-28T10:44:52.013Z,19.29
2018-09-28T10:45:52.068Z,17.50
2018-09-28T10:46:51.993Z,18.79
2018-09-28T10:47:51.981Z,21.29
2018-09-28T10:48:51.970Z,21.50
2018-09-28T10:49:51.959Z,25.70
2018-09-28T10:50:51.968Z,21.89
2018-09-28T10:51:52.073Z,20.79
2018-09-28T10:52:52.063Z,20.89
2018-09-28T10:53:51.917Z,19.39
2018-09-28T10:54:51.905Z,19.70
2018-09-28T10:55:51.896Z,19.70
2018-09-28T10:56:51.883Z,19.70
2018-09-28T10:57:51.872Z,28.10
2018-09-28T10:58:51.889Z,28.00
2018-09-28T10:59:51.851Z,25.89
2018-09-28T11:00:51.839Z,27.79
2018-09-28T11:01:51.829Z,25.89
2018-09-28T11:02:51.819Z,23.39
2018-09-28T11:03:51.808Z,27.60
2018-09-28T11:04:51.800Z,25.70
2018-09-28T11:05:51.788Z,28.39
2018-09-28T11:06:51.773Z,27.79
2018-09-28T11:07:51.767Z,26.10
2018-09-28T11:08:51.817Z,28.29
2018-09-28T11:09:51.742Z,28.29
2018-09-28T11:10:51.752Z,27.39
2018-09-28T11:11:51.718Z,25.89
2018-09-28T11:12:51.708Z,28.29
2018-09-28T11:13:51.696Z,26.20
2018-09-28T11:14:51.688Z,26.60
2018-09-28T11:15:51.809Z,27.10
2018-09-28T11:16:51.664Z,26.60
2018-09-28T11:17:51.655Z,26.00
2018-09-28T11:18:51.658Z,24.50
2018-09-28T11:19:51.632Z,27.39
2018-09-28T11:20:51.620Z,27.39
2018-09-28T11:21:51.612Z,29.70
2018-09-28T11:22:51.600Z,32.00
2018-09-28T11:23:51.592Z,32.00
2018-09-28T11:24:51.580Z,32.90
2018-09-28T11:25:51.568Z,28.50
2018-09-28T11:26:51.555Z,30.70
2018-09-28T11:27:51.631Z,30.00
2018-09-28T11:28:51.536Z,27.50
2018-09-28T11:29:51.522Z,30.00
2018-09-28T11:30:51.512Z,29.20
2018-09-28T11:31:51.499Z,28.20
2018-09-28T11:32:51.492Z,26.79
2018-09-28T11:33:51.620Z,33.90
2018-09-28T11:34:51.470Z,32.79
2018-09-28T11:35:51.459Z,32.20
2018-09-28T11:36:51.448Z,33.40
2018-09-28T11:37:51.582Z,34.40
2018-09-28T11:38:51.424Z,33.29
2018-09-28T11:39:51.450Z,36.29
2018-09-28T11:40:51.405Z,34.59
2018-09-28T11:41:51.392Z,32.50
2018-09-28T11:42:51.381Z,32.20
2018-09-28T11:43:51.372Z,31.70
2018-09-28T11:44:51.360Z,33.50
2018-09-28T11:45:51.495Z,34.70
2018-09-28T11:46:51.338Z,28.60
2018-09-28T11:47:51.326Z,31.29
2018-09-28T11:48:51.319Z,29.29
2018-09-28T11:49:51.306Z,29.70
2018-09-28T11:50:51.295Z,27.10
2018-09-28T11:51:51.410Z,31.60
2018-09-28T11:52:51.274Z,28.39
2018-09-28T11:53:51.263Z,31.00
2018-09-28T11:54:51.254Z,36.50
2018-09-28T11:55:51.240Z,40.20
2018-09-28T11:56:51.228Z,40.09
2018-09-28T11:57:51.217Z,35.79
2018-09-28T11:58:51.210Z,37.00
2018-09-28T11:59:51.286Z,37.59
2018-09-28T12:00:51.187Z,36.70
2018-09-28T12:01:51.175Z,33.29
2018-09-28T12:02:51.167Z,35.50
2018-09-28T12:03:51.246Z,35.09
2018-09-28T12:04:51.144Z,36.59
2018-09-28T12:05:51.133Z,36.09
2018-09-28T12:06:51.209Z,37.90
2018-09-28T12:07:51.111Z,39.90
2018-09-28T12:08:51.103Z,41.40
2018-09-28T12:09:51.091Z,40.09
2018-09-28T12:10:51.144Z,43.29
2018-09-28T12:11:51.068Z,37.09
2018-09-28T12:12:51.058Z,39.79
2018-09-28T12:13:51.051Z,36.79
2018-09-28T12:14:51.033Z,39.00
2018-09-28T12:15:51.144Z,40.90
2018-09-28T12:16:51.014Z,40.29
2018-09-28T12:17:51.002Z,38.20
2018-09-28T12:18:51.018Z,35.00
2018-09-28T12:19:50.982Z,34.90
2018-09-28T12:20:50.969Z,39.90
2018-09-28T12:21:51.101Z,34.79
2018-09-28T12:22:50.949Z,35.20
2018-09-28T12:23:50.938Z,37.09
2018-09-28T12:24:50.982Z,39.09
2018-09-28T12:25:50.914Z,42.29
2018-09-28T12:26:50.902Z,45.50
2018-09-28T12:27:51.006Z,39.70
2018-09-28T12:28:50.883Z,39.00
2018-09-28T12:29:50.871Z,40.40
2018-09-28T12:30:51.019Z,43.79
2018-09-28T12:31:50.848Z,44.79
2018-09-28T12:32:50.839Z,44.29
2018-09-28T12:33:50.828Z,47.40
2018-09-28T12:34:50.817Z,47.09
2018-09-28T12:35:50.805Z,42.09
2018-09-28T12:36:50.845Z,45.79
2018-09-28T12:37:50.783Z,50.29
2018-09-28T12:38:50.773Z,45.79
2018-09-28T12:39:50.791Z,47.29
2018-09-28T12:40:50.751Z,48.90
2018-09-28T12:41:50.741Z,49.59
2018-09-28T12:42:50.800Z,51.20
2018-09-28T12:43:50.717Z,41.29
2018-09-28T12:44:50.763Z,44.09
2018-09-28T12:45:50.697Z,43.90
2018-09-28T12:46:50.686Z,47.70
2018-09-28T12:47:50.674Z,45.29
2018-09-28T12:48:50.679Z,43.00
2018-09-28T12:49:50.656Z,45.90
2018-09-28T12:50:50.644Z,45.40
2018-09-28T12:51:50.632Z,45.79
2018-09-28T12:52:50.623Z,38.90
2018-09-28T12:53:50.610Z,44.09
2018-09-28T12:54:50.692Z,46.40
2018-09-28T12:55:50.592Z,47.59
2018-09-28T12:56:50.680Z,34.70
2018-09-28T12:57:50.565Z,38.79
2018-09-28T12:58:50.555Z,42.90
2018-09-28T12:59:50.546Z,41.09
2018-09-28T13:00:50.677Z,34.50
2018-09-28T13:01:50.523Z,35.20
2018-09-28T13:02:50.562Z,35.50
2018-09-28T13:03:50.501Z,38.90
2018-09-28T13:04:50.494Z,35.70
2018-09-28T13:05:50.479Z,32.70
2018-09-28T13:06:50.477Z,35.00
2018-09-28T13:07:50.456Z,33.50
2018-09-28T13:08:50.562Z,31.50
2018-09-28T13:09:50.440Z,32.20
2018-09-28T13:10:50.425Z,30.60
2018-09-28T13:11:50.415Z,33.00